createdAt,value
2022-09-12T00:00:01.476Z,99743.34
2022-09-12T00:00:11.417Z,99741.01
2022-09-12T00:00:21.479Z,99739.20
2022-09-12T00:00:31.487Z,99743.95
2022-09-12T00:00:41.445Z,99742.45
2022-09-12T00:00:51.535Z,99738.10
2022-09-12T00:01:01.583Z,99740.10
2022-09-12T00:01:11.631Z,99738.86
2022-09-12T00:01:21.595Z,99740.48
2022-09-12T00:01:31.643Z,99738.70
2022-09-12T00:01:41.545Z,99740.98
2022-09-12T00:01:51.536Z,99744.19
2022-09-12T00:02:01.499Z,99742.10
2022-09-12T00:02:11.623Z,99740.10
2022-09-12T00:02:21.545Z,99741.79
2022-09-12T00:02:31.488Z,99744.36
2022-09-12T00:02:41.532Z,99742.95
2022-09-12T00:02:51.458Z,99741.29
2022-09-12T00:03:01.459Z,99740.94
2022-09-12T00:03:11.440Z,99742.29
2022-09-12T00:03:21.457Z,99743.03
2022-09-12T00:03:31.548Z,99742.36
2022-09-12T00:03:41.526Z,99741.86
2022-09-12T00:03:51.423Z,99741.36
2022-09-12T00:04:01.417Z,99741.36
2022-09-12T00:04:11.415Z,99745.91
2022-09-12T00:04:21.495Z,99746.60
2022-09-12T00:04:31.430Z,99741.38
2022-09-12T00:04:41.491Z,99742.77
2022-09-12T00:04:51.439Z,99740.31
2022-09-12T00:05:01.479Z,99742.80
2022-09-12T00:05:11.500Z,99740.22
2022-09-12T00:05:21.441Z,99743.62
2022-09-12T00:05:31.469Z,99742.88
2022-09-12T00:05:41.503Z,99742.66
2022-09-12T00:05:51.480Z,99745.72
2022-09-12T00:06:01.507Z,99742.66
2022-09-12T00:06:11.525Z,99743.49
2022-09-12T00:06:23.081Z,99742.90
2022-09-12T00:06:31.426Z,99742.30
2022-09-12T00:06:41.494Z,99742.49
2022-09-12T00:06:51.448Z,99741.90
2022-09-12T00:07:01.502Z,99742.67
2022-09-12T00:07:11.472Z,99740.09
2022-09-12T00:07:21.452Z,99737.75
2022-09-12T00:07:31.548Z,99744.02
2022-09-12T00:07:41.492Z,99740.68
2022-09-12T00:07:51.508Z,99738.98
2022-09-12T00:08:01.462Z,99741.75
2022-09-12T00:08:11.517Z,99742.59
2022-09-12T00:08:21.534Z,99741.09
2022-09-12T00:08:31.485Z,99744.75
2022-09-12T00:08:41.495Z,99739.36
2022-09-12T00:08:51.443Z,99740.66
2022-09-12T00:09:01.487Z,99739.16
2022-09-12T00:09:11.421Z,99737.36
2022-09-12T00:09:21.495Z,99736.92
2022-09-12T00:09:31.478Z,99738.60
2022-09-12T00:09:41.423Z,99738.33
2022-09-12T00:09:51.553Z,99740.33
2022-09-12T00:10:01.463Z,99738.09
2022-09-12T00:10:11.470Z,99740.16
2022-09-12T00:10:21.534Z,99737.03
2022-09-12T00:10:31.450Z,99739.48
2022-09-12T00:10:41.496Z,99739.52
2022-09-12T00:10:51.477Z,99736.77
2022-09-12T00:11:01.499Z,99738.86
2022-09-12T00:11:11.440Z,99743.03
2022-09-12T00:11:21.527Z,99741.60
2022-09-12T00:11:31.509Z,99742.20
2022-09-12T00:11:41.486Z,99741.10
2022-09-12T00:11:51.478Z,99740.84
2022-09-12T00:12:01.529Z,99743.77
2022-09-12T00:12:11.454Z,99738.62
2022-09-12T00:12:21.437Z,99742.52
2022-09-12T00:12:31.507Z,99736.62
2022-09-12T00:12:41.467Z,99738.52
2022-09-12T00:12:51.481Z,99744.28
2022-09-12T00:13:01.502Z,99738.90
2022-09-12T00:13:11.494Z,99740.19
2022-09-12T00:13:21.444Z,99740.88
2022-09-12T00:13:31.518Z,99740.05
2022-09-12T00:13:41.942Z,99742.38
2022-09-12T00:13:51.415Z,99744.88
2022-09-12T00:14:01.570Z,99740.58
2022-09-12T00:14:11.532Z,99738.66
2022-09-12T00:14:21.525Z,99738.48
2022-09-12T00:14:31.443Z,99742.16
2022-09-12T00:14:41.513Z,99739.06
2022-09-12T00:14:51.540Z,99741.00
2022-09-12T00:15:01.519Z,99741.73
2022-09-12T00:15:11.475Z,99740.00
2022-09-12T00:15:21.426Z,99740.77
2022-09-12T00:15:31.443Z,99740.67
2022-09-12T00:15:41.438Z,99739.00
2022-09-12T00:15:51.438Z,99739.91
2022-09-12T00:16:01.476Z,99743.08
2022-09-12T00:16:11.563Z,99735.59
2022-09-12T00:16:21.489Z,99737.43
2022-09-12T00:16:31.535Z,99738.14
2022-09-12T00:16:41.584Z,99740.52
2022-09-12T00:16:51.522Z,99735.64
2022-09-12T00:17:01.484Z,99738.16
2022-09-12T00:17:11.537Z,99741.32
2022-09-12T00:17:21.423Z,99737.89
2022-09-12T00:17:31.496Z,99737.89
2022-09-12T00:17:41.438Z,99741.39
2022-09-12T00:17:51.413Z,99737.34
2022-09-12T00:18:01.534Z,99739.00
2022-09-12T00:18:11.454Z,99736.74
2022-09-12T00:18:21.425Z,99739.52
2022-09-12T00:18:31.531Z,99740.98
2022-09-12T00:18:41.528Z,99740.69
2022-09-12T00:18:51.496Z,99739.20
2022-09-12T00:19:01.475Z,99740.93
2022-09-12T00:19:11.496Z,99736.88
2022-09-12T00:19:21.508Z,99737.84
2022-09-12T00:19:31.553Z,99739.17
2022-09-12T00:19:41.481Z,99735.02
2022-09-12T00:19:51.531Z,99739.78
2022-09-12T00:20:01.416Z,99741.72
2022-09-12T00:20:11.418Z,99742.22
2022-09-12T00:20:21.502Z,99741.72
2022-09-12T00:20:31.460Z,99741.39
2022-09-12T00:20:41.513Z,99740.12
2022-09-12T00:20:51.439Z,99736.72
2022-09-12T00:21:01.549Z,99740.48
2022-09-12T00:21:11.433Z,99736.22
2022-09-12T00:21:21.430Z,99743.72
2022-09-12T00:21:31.442Z,99743.49
2022-09-12T00:21:41.521Z,99743.23
2022-09-12T00:21:51.503Z,99739.42
2022-09-12T00:22:01.534Z,99741.08
2022-09-12T00:22:11.435Z,99739.53
2022-09-12T00:22:21.478Z,99740.25
2022-09-12T00:22:31.431Z,99736.98
2022-09-12T00:22:41.516Z,99737.53
2022-09-12T00:22:51.486Z,99737.48
2022-09-12T00:23:01.409Z,99741.97
2022-09-12T00:23:11.515Z,99737.62
2022-09-12T00:23:21.495Z,99738.62
2022-09-12T00:23:31.475Z,99739.45
2022-09-12T00:23:41.433Z,99742.78
2022-09-12T00:23:51.526Z,99737.73
2022-09-12T00:24:01.455Z,99743.11
2022-09-12T00:24:11.533Z,99740.98
2022-09-12T00:24:21.500Z,99740.13
2022-09-12T00:24:31.499Z,99741.33
2022-09-12T00:24:41.447Z,99742.73
2022-09-12T00:24:51.537Z,99739.01
2022-09-12T00:25:01.450Z,99740.84
2022-09-12T00:25:11.513Z,99739.67
2022-09-12T00:25:21.567Z,99741.80
2022-09-12T00:25:31.481Z,99743.80
2022-09-12T00:25:41.503Z,99744.97
2022-09-12T00:25:51.422Z,99743.84
2022-09-12T00:26:01.544Z,99741.34
2022-09-12T00:26:11.423Z,99741.00
2022-09-12T00:26:21.469Z,99743.17
2022-09-12T00:26:31.490Z,99741.62
2022-09-12T00:26:41.572Z,99739.17
2022-09-12T00:26:51.468Z,99741.48
2022-09-12T00:27:01.462Z,99740.84
2022-09-12T00:27:11.519Z,99745.50
2022-09-12T00:27:21.520Z,99745.02
2022-09-12T00:27:31.515Z,99744.52
2022-09-12T00:27:41.435Z,99744.26
2022-09-12T00:27:51.567Z,99746.03
2022-09-12T00:28:01.413Z,99741.69
2022-09-12T00:28:11.507Z,99742.76
2022-09-12T00:28:21.503Z,99741.45
2022-09-12T00:28:31.520Z,99743.88
2022-09-12T00:28:41.573Z,99739.52
2022-09-12T00:28:51.536Z,99745.00
2022-09-12T00:29:01.535Z,99744.88
2022-09-12T00:29:11.460Z,99744.53
2022-09-12T00:29:21.529Z,99743.89
2022-09-12T00:29:31.423Z,99745.17
2022-09-12T00:29:41.525Z,99744.88
2022-09-12T00:29:51.500Z,99741.95
2022-09-12T00:30:01.485Z,99742.61
2022-09-12T00:30:11.522Z,99739.69
2022-09-12T00:30:21.527Z,99738.52
2022-09-12T00:30:31.411Z,99739.11
2022-09-12T00:30:41.417Z,99738.12
2022-09-12T00:30:51.483Z,99739.34
2022-09-12T00:31:01.411Z,99741.36
2022-09-12T00:31:11.505Z,99742.95
2022-09-12T00:31:21.572Z,99741.46
2022-09-12T00:31:31.628Z,99741.57
2022-09-12T00:31:41.535Z,99742.95
2022-09-12T00:31:51.474Z,99741.81
2022-09-12T00:32:01.532Z,99739.25
2022-09-12T00:32:11.467Z,99742.75
2022-09-12T00:32:21.537Z,99739.14
2022-09-12T00:32:31.438Z,99742.21
2022-09-12T00:32:41.446Z,99740.75
2022-09-12T00:32:51.486Z,99743.48
2022-09-12T00:33:01.545Z,99741.49
2022-09-12T00:33:11.437Z,99743.23
2022-09-12T00:33:21.499Z,99742.98
2022-09-12T00:33:31.501Z,99743.09
2022-09-12T00:33:41.450Z,99745.55
2022-09-12T00:33:51.509Z,99742.33
2022-09-12T00:34:01.507Z,99744.91
2022-09-12T00:34:11.422Z,99742.77
2022-09-12T00:34:21.471Z,99742.73
2022-09-12T00:34:31.494Z,99743.33
2022-09-12T00:34:41.433Z,99746.48
2022-09-12T00:34:51.528Z,99744.73
2022-09-12T00:35:01.525Z,99748.05
2022-09-12T00:35:11.526Z,99745.89
2022-09-12T00:35:21.503Z,99745.60
2022-09-12T00:35:31.426Z,99743.73
2022-09-12T00:35:41.515Z,99742.27
2022-09-12T00:35:51.428Z,99742.60
2022-09-12T00:36:01.477Z,99745.66
2022-09-12T00:36:11.447Z,99744.23
2022-09-12T00:36:21.494Z,99742.56
2022-09-12T00:36:31.424Z,99744.41
2022-09-12T00:36:41.510Z,99742.50
2022-09-12T00:36:51.461Z,99740.16
2022-09-12T00:37:01.555Z,99741.39
2022-09-12T00:37:11.412Z,99742.89
2022-09-12T00:37:21.491Z,99744.23
2022-09-12T00:37:31.494Z,99741.94
2022-09-12T00:37:41.427Z,99743.09
2022-09-12T00:37:51.546Z,99746.91
2022-09-12T00:38:01.520Z,99744.88
2022-09-12T00:38:11.421Z,99741.49
2022-09-12T00:38:21.488Z,99744.55
2022-09-12T00:38:31.548Z,99743.98
2022-09-12T00:38:41.573Z,99742.66
2022-09-12T00:38:51.472Z,99744.05
2022-09-12T00:39:01.539Z,99744.09
2022-09-12T00:39:11.414Z,99748.38
2022-09-12T00:39:21.443Z,99743.71
2022-09-12T00:39:31.510Z,99744.64
2022-09-12T00:39:41.490Z,99745.80
2022-09-12T00:39:51.465Z,99745.21
2022-09-12T00:40:01.585Z,99748.38
2022-09-12T00:40:11.490Z,99744.21
2022-09-12T00:40:21.474Z,99745.05
2022-09-12T00:40:31.506Z,99749.20
2022-09-12T00:40:41.467Z,99741.14
2022-09-12T00:40:51.539Z,99745.73
2022-09-12T00:41:01.520Z,99750.36
2022-09-12T00:41:11.510Z,99744.56
2022-09-12T00:41:21.541Z,99747.19
2022-09-12T00:41:31.541Z,99747.23
2022-09-12T00:41:41.546Z,99744.06
2022-09-12T00:41:51.439Z,99745.14
2022-09-12T00:42:01.451Z,99745.53
2022-09-12T00:42:11.438Z,99747.78
2022-09-12T00:42:21.462Z,99750.62
2022-09-12T00:42:31.454Z,99747.95
2022-09-12T00:42:41.484Z,99747.40
2022-09-12T00:42:51.452Z,99747.90
2022-09-12T00:43:01.436Z,99748.56
2022-09-12T00:43:11.540Z,99747.14
2022-09-12T00:43:21.466Z,99746.80
2022-09-12T00:43:31.429Z,99746.06
2022-09-12T00:43:41.503Z,99747.73
2022-09-12T00:43:51.506Z,99743.91
2022-09-12T00:44:01.532Z,99745.55
2022-09-12T00:44:11.455Z,99746.06
2022-09-12T00:44:21.458Z,99747.20
2022-09-12T00:44:31.501Z,99745.64
2022-09-12T00:44:41.539Z,99744.56
2022-09-12T00:44:51.527Z,99744.55
2022-09-12T00:45:01.499Z,99746.30
2022-09-12T00:45:11.524Z,99745.69
2022-09-12T00:45:21.508Z,99746.73
2022-09-12T00:45:31.456Z,99743.57
2022-09-12T00:45:41.560Z,99746.45
2022-09-12T00:45:51.461Z,99741.07
2022-09-12T00:46:01.604Z,99740.38
2022-09-12T00:46:11.533Z,99739.64
2022-09-12T00:46:21.469Z,99738.08
2022-09-12T00:46:31.448Z,99740.14
2022-09-12T00:46:41.442Z,99740.70
2022-09-12T00:46:51.436Z,99742.36
2022-09-12T00:47:01.416Z,99737.41
2022-09-12T00:47:11.453Z,99739.23
2022-09-12T00:47:21.515Z,99742.07
2022-09-12T00:47:31.490Z,99741.53
2022-09-12T00:47:41.504Z,99742.20
2022-09-12T00:47:51.520Z,99739.70
2022-09-12T00:48:01.548Z,99740.62
2022-09-12T00:48:11.519Z,99738.48
2022-09-12T00:48:21.470Z,99741.20
2022-09-12T00:48:31.434Z,99744.56
2022-09-12T00:48:41.505Z,99740.91
2022-09-12T00:48:51.484Z,99736.96
2022-09-12T00:49:01.511Z,99735.37
2022-09-12T00:49:11.421Z,99735.62
2022-09-12T00:49:21.553Z,99735.47
2022-09-12T00:49:31.492Z,99731.47
2022-09-12T00:49:41.522Z,99735.39
2022-09-12T00:49:51.444Z,99733.97
2022-09-12T00:50:01.469Z,99737.02
2022-09-12T00:50:11.522Z,99738.95
2022-09-12T00:50:21.483Z,99736.62
2022-09-12T00:50:31.478Z,99737.19
2022-09-12T00:50:41.516Z,99735.35
2022-09-12T00:50:51.428Z,99736.05
2022-09-12T00:51:01.421Z,99737.84
2022-09-12T00:51:11.435Z,99740.95
2022-09-12T00:51:21.429Z,99736.88
2022-09-12T00:51:31.512Z,99736.55
2022-09-12T00:51:41.542Z,99735.88
2022-09-12T00:51:51.491Z,99734.02
2022-09-12T00:52:01.440Z,99733.85
2022-09-12T00:52:11.517Z,99733.45
2022-09-12T00:52:21.491Z,99733.19
2022-09-12T00:52:31.526Z,99736.02
2022-09-12T00:52:41.505Z,99733.02
2022-09-12T00:52:51.432Z,99734.35
2022-09-12T00:53:01.541Z,99735.23
2022-09-12T00:53:11.507Z,99738.52
2022-09-12T00:53:21.465Z,99735.52
2022-09-12T00:53:31.531Z,99739.59
2022-09-12T00:53:41.446Z,99732.63
2022-09-12T00:53:51.419Z,99734.11
2022-09-12T00:54:01.495Z,99733.52
2022-09-12T00:54:11.531Z,99738.84
2022-09-12T00:54:21.439Z,99735.06
2022-09-12T00:54:31.491Z,99729.30
2022-09-12T00:54:41.504Z,99735.69
2022-09-12T00:54:51.452Z,99731.02
2022-09-12T00:55:01.535Z,99734.02
2022-09-12T00:55:11.423Z,99733.19
2022-09-12T00:55:21.443Z,99733.47
2022-09-12T00:55:31.550Z,99734.19
2022-09-12T00:55:41.532Z,99730.64
2022-09-12T00:55:51.494Z,99738.06
2022-09-12T00:56:01.473Z,99733.63
2022-09-12T00:56:11.443Z,99734.52
2022-09-12T00:56:21.490Z,99732.85
2022-09-12T00:56:31.542Z,99733.39
2022-09-12T00:56:41.442Z,99730.73
2022-09-12T00:56:51.493Z,99729.30
2022-09-12T00:57:01.531Z,99731.23
2022-09-12T00:57:11.436Z,99729.69
2022-09-12T00:57:21.450Z,99733.35
2022-09-12T00:57:31.492Z,99728.30
2022-09-12T00:57:41.541Z,99734.30
2022-09-12T00:57:51.544Z,99735.39
2022-09-12T00:58:01.505Z,99735.56
2022-09-12T00:58:11.444Z,99729.30
2022-09-12T00:58:21.550Z,99727.71
2022-09-12T00:58:31.509Z,99729.88
2022-09-12T00:58:41.504Z,99727.30
2022-09-12T00:58:51.553Z,99732.63
2022-09-12T00:59:01.539Z,99728.41
2022-09-12T00:59:11.436Z,99730.38
2022-09-12T00:59:21.490Z,99732.25
2022-09-12T00:59:31.446Z,99729.91
2022-09-12T00:59:41.421Z,99728.39
2022-09-12T00:59:51.521Z,99726.39
2022-09-12T01:00:01.476Z,99727.75
2022-09-12T01:00:11.523Z,99726.33
2022-09-12T01:00:21.417Z,99728.23
2022-09-12T01:00:31.469Z,99728.23
2022-09-12T01:00:41.496Z,99726.84
2022-09-12T01:00:51.580Z,99726.16
2022-09-12T01:01:01.499Z,99724.94
2022-09-12T01:01:11.641Z,99727.00
2022-09-12T01:01:21.580Z,99726.41
2022-09-12T01:01:32.675Z,99724.67
2022-09-12T01:01:41.545Z,99727.74
2022-09-12T01:01:51.553Z,99726.28
2022-09-12T01:02:01.522Z,99724.41
2022-09-12T01:02:11.619Z,99729.61
2022-09-12T01:02:21.592Z,99726.19
2022-09-12T01:02:31.496Z,99725.30
2022-09-12T01:02:41.510Z,99726.62
2022-09-12T01:02:51.506Z,99726.36
2022-09-12T01:03:01.466Z,99727.63
2022-09-12T01:03:11.432Z,99729.09
2022-09-12T01:03:21.499Z,99724.70
2022-09-12T01:03:31.549Z,99726.94
2022-09-12T01:03:41.505Z,99726.20
2022-09-12T01:03:51.422Z,99722.45
2022-09-12T01:04:01.497Z,99721.80
2022-09-12T01:04:11.506Z,99721.98
2022-09-12T01:04:21.539Z,99723.41
2022-09-12T01:04:31.445Z,99722.98
2022-09-12T01:04:41.461Z,99723.14
2022-09-12T01:04:51.439Z,99724.42
2022-09-12T01:05:01.496Z,99724.16
2022-09-12T01:05:11.519Z,99725.83
2022-09-12T01:05:21.413Z,99721.20
2022-09-12T01:05:31.415Z,99723.70
2022-09-12T01:05:41.539Z,99717.88
2022-09-12T01:05:51.530Z,99719.05
2022-09-12T01:06:01.489Z,99717.68
2022-09-12T01:06:11.446Z,99724.88
2022-09-12T01:06:21.555Z,99723.05
2022-09-12T01:06:31.513Z,99719.95
2022-09-12T01:06:41.527Z,99721.62
2022-09-12T01:06:51.466Z,99720.73
2022-09-12T01:07:01.541Z,99723.86
2022-09-12T01:07:11.484Z,99720.69
2022-09-12T01:07:21.440Z,99724.95
2022-09-12T01:07:31.421Z,99722.52
2022-09-12T01:07:41.489Z,99723.03
2022-09-12T01:07:51.538Z,99721.20
2022-09-12T01:08:01.534Z,99723.38
2022-09-12T01:08:11.546Z,99721.05
2022-09-12T01:08:21.495Z,99727.70
2022-09-12T01:08:31.431Z,99721.06
2022-09-12T01:08:41.606Z,99723.70
2022-09-12T01:08:51.477Z,99721.39
2022-09-12T01:09:01.502Z,99721.91
2022-09-12T01:09:11.479Z,99720.27
2022-09-12T01:09:21.488Z,99721.58
2022-09-12T01:09:31.505Z,99715.45
2022-09-12T01:09:41.462Z,99719.08
2022-09-12T01:09:51.516Z,99722.23
2022-09-12T01:10:01.484Z,99717.80
2022-09-12T01:10:11.424Z,99722.12
2022-09-12T01:10:21.467Z,99717.54
2022-09-12T01:10:31.419Z,99718.87
2022-09-12T01:10:41.514Z,99717.72
2022-09-12T01:10:51.443Z,99714.91
2022-09-12T01:11:01.508Z,99719.99
2022-09-12T01:11:11.418Z,99719.56
2022-09-12T01:11:21.451Z,99718.30
2022-09-12T01:11:31.496Z,99721.67
2022-09-12T01:11:41.513Z,99718.45
2022-09-12T01:11:51.477Z,99717.86
2022-09-12T01:12:01.461Z,99720.29
2022-09-12T01:12:11.546Z,99716.34
2022-09-12T01:12:21.477Z,99714.12
2022-09-12T01:12:31.462Z,99713.14
2022-09-12T01:12:41.472Z,99717.27
2022-09-12T01:12:51.545Z,99717.55
2022-09-12T01:13:01.500Z,99717.66
2022-09-12T01:13:11.517Z,99713.66
2022-09-12T01:13:21.522Z,99716.66
2022-09-12T01:13:31.470Z,99717.50
2022-09-12T01:13:41.460Z,99716.73
2022-09-12T01:13:51.433Z,99716.09
2022-09-12T01:14:01.485Z,99721.65
2022-09-12T01:14:11.526Z,99718.09
2022-09-12T01:14:21.516Z,99717.86
2022-09-12T01:14:31.443Z,99717.21
2022-09-12T01:14:41.519Z,99715.89
2022-09-12T01:14:51.532Z,99712.23
2022-09-12T01:15:01.456Z,99718.11
2022-09-12T01:15:11.412Z,99716.20
2022-09-12T01:15:21.552Z,99716.98
2022-09-12T01:15:31.511Z,99716.08
2022-09-12T01:15:41.497Z,99717.36
2022-09-12T01:15:51.442Z,99721.23
2022-09-12T01:16:01.628Z,99720.36
2022-09-12T01:16:11.552Z,99711.50
2022-09-12T01:16:21.553Z,99713.26
2022-09-12T01:16:31.558Z,99712.94
2022-09-12T01:16:41.518Z,99714.67
2022-09-12T01:16:51.464Z,99717.08
2022-09-12T01:17:01.509Z,99716.19
2022-09-12T01:17:11.445Z,99717.75
2022-09-12T01:17:21.419Z,99715.30
2022-09-12T01:17:31.486Z,99721.18
2022-09-12T01:17:41.485Z,99716.86
2022-09-12T01:17:51.512Z,99717.12
2022-09-12T01:18:01.536Z,99713.77
2022-09-12T01:18:11.408Z,99715.94
2022-09-12T01:18:21.437Z,99716.46
2022-09-12T01:18:31.544Z,99716.77
2022-09-12T01:18:41.552Z,99716.81
2022-09-12T01:18:51.544Z,99719.70
2022-09-12T01:19:01.482Z,99714.77
2022-09-12T01:19:11.500Z,99713.72
2022-09-12T01:19:21.545Z,99713.12
2022-09-12T01:19:31.506Z,99715.55
2022-09-12T01:19:41.468Z,99713.39
2022-09-12T01:19:51.496Z,99715.62
2022-09-12T01:20:01.420Z,99710.91
2022-09-12T01:20:11.455Z,99714.29
2022-09-12T01:20:21.477Z,99711.73
2022-09-12T01:20:31.441Z,99712.30
2022-09-12T01:20:41.412Z,99714.30
2022-09-12T01:20:51.460Z,99710.09
2022-09-12T01:21:01.554Z,99712.64
2022-09-12T01:21:11.517Z,99713.67
2022-09-12T01:21:21.505Z,99713.14
2022-09-12T01:21:31.465Z,99711.75
2022-09-12T01:21:41.497Z,99711.31
2022-09-12T01:21:51.451Z,99708.16
2022-09-12T01:22:01.544Z,99711.81
2022-09-12T01:22:11.497Z,99710.36
2022-09-12T01:22:21.510Z,99713.52
2022-09-12T01:22:31.534Z,99712.02
2022-09-12T01:22:41.419Z,99710.28
2022-09-12T01:22:51.498Z,99710.20
2022-09-12T01:23:01.445Z,99709.02
2022-09-12T01:23:11.416Z,99708.23
2022-09-12T01:23:21.434Z,99708.57
2022-09-12T01:23:31.495Z,99710.69
2022-09-12T01:23:41.437Z,99705.98
2022-09-12T01:23:51.435Z,99707.81
2022-09-12T01:24:01.421Z,99707.12
2022-09-12T01:24:11.527Z,99706.81
2022-09-12T01:24:21.441Z,99706.42
2022-09-12T01:24:31.470Z,99706.49
2022-09-12T01:24:41.535Z,99704.40
2022-09-12T01:24:51.513Z,99709.91
2022-09-12T01:25:01.438Z,99701.73
2022-09-12T01:25:11.518Z,99705.23
2022-09-12T01:25:21.539Z,99704.77
2022-09-12T01:25:31.435Z,99706.93
2022-09-12T01:25:41.460Z,99708.93
2022-09-12T01:25:51.428Z,99710.05
2022-09-12T01:26:01.505Z,99705.94
2022-09-12T01:26:11.541Z,99704.45
2022-09-12T01:26:21.428Z,99708.17
2022-09-12T01:26:31.503Z,99706.92
2022-09-12T01:26:41.412Z,99704.76
2022-09-12T01:26:51.515Z,99705.59
2022-09-12T01:27:01.423Z,99706.25
2022-09-12T01:27:11.426Z,99702.94
2022-09-12T01:27:21.441Z,99704.14
2022-09-12T01:27:31.421Z,99705.05
2022-09-12T01:27:41.444Z,99706.78
2022-09-12T01:27:51.444Z,99705.78
2022-09-12T01:28:01.502Z,99709.48
2022-09-12T01:28:11.535Z,99707.22
2022-09-12T01:28:21.410Z,99709.39
2022-09-12T01:28:31.519Z,99711.12
2022-09-12T01:28:41.497Z,99706.55
2022-09-12T01:28:51.419Z,99707.66
2022-09-12T01:29:01.474Z,99707.07
2022-09-12T01:29:11.524Z,99704.35
2022-09-12T01:29:21.414Z,99706.64
2022-09-12T01:29:31.540Z,99705.91
2022-09-12T01:29:41.509Z,99704.42
2022-09-12T01:29:51.409Z,99704.84
2022-09-12T01:30:01.528Z,99706.09
2022-09-12T01:30:11.518Z,99703.53
2022-09-12T01:30:21.425Z,99705.82
2022-09-12T01:30:31.530Z,99706.91
2022-09-12T01:30:41.430Z,99706.20
2022-09-12T01:30:51.410Z,99706.33
2022-09-12T01:31:01.443Z,99702.55
2022-09-12T01:31:11.424Z,99704.11
2022-09-12T01:31:21.475Z,99702.06
2022-09-12T01:31:31.524Z,99707.77
2022-09-12T01:31:41.497Z,99705.45
2022-09-12T01:31:51.560Z,99703.80
2022-09-12T01:32:01.609Z,99704.86
2022-09-12T01:32:11.551Z,99707.95
2022-09-12T01:32:21.677Z,99704.90
2022-09-12T01:32:31.451Z,99705.63
2022-09-12T01:32:41.466Z,99703.70
2022-09-12T01:32:51.457Z,99704.08
2022-09-12T01:33:01.447Z,99705.58
2022-09-12T01:33:11.422Z,99705.64
2022-09-12T01:33:21.482Z,99705.58
2022-09-12T01:33:31.501Z,99705.48
2022-09-12T01:33:41.456Z,99708.55
2022-09-12T01:33:51.541Z,99708.48
2022-09-12T01:34:01.485Z,99706.72
2022-09-12T01:34:11.531Z,99707.98
2022-09-12T01:34:21.518Z,99705.83
2022-09-12T01:34:31.429Z,99707.48
2022-09-12T01:34:41.527Z,99708.16
2022-09-12T01:34:51.449Z,99709.59
2022-09-12T01:35:01.440Z,99707.77
2022-09-12T01:35:11.488Z,99702.58
2022-09-12T01:35:21.529Z,99705.00
2022-09-12T01:35:31.457Z,99710.42
2022-09-12T01:35:41.504Z,99706.34
2022-09-12T01:35:51.523Z,99708.90
2022-09-12T01:36:01.430Z,99704.01
2022-09-12T01:36:11.488Z,99708.23
2022-09-12T01:36:21.434Z,99705.69
2022-09-12T01:36:31.549Z,99706.84
2022-09-12T01:36:41.436Z,99709.67
2022-09-12T01:36:51.500Z,99707.34
2022-09-12T01:37:01.474Z,99708.67
2022-09-12T01:37:11.507Z,99702.02
2022-09-12T01:37:21.409Z,99708.67
2022-09-12T01:37:31.478Z,99706.84
2022-09-12T01:37:41.498Z,99709.62
2022-09-12T01:37:51.538Z,99708.36
2022-09-12T01:38:01.422Z,99705.96
2022-09-12T01:38:11.536Z,99706.59
2022-09-12T01:38:21.473Z,99707.20
2022-09-12T01:38:31.416Z,99703.60
2022-09-12T01:38:41.553Z,99700.70
2022-09-12T01:38:51.541Z,99699.61
2022-09-12T01:39:01.495Z,99704.96
2022-09-12T01:39:11.512Z,99704.10
2022-09-12T01:39:21.428Z,99701.04
2022-09-12T01:39:31.480Z,99702.37
2022-09-12T01:39:41.456Z,99707.62
2022-09-12T01:39:51.645Z,99705.12
2022-09-12T01:40:01.503Z,99699.45
2022-09-12T01:40:11.556Z,99705.09
2022-09-12T01:40:21.547Z,99702.13
2022-09-12T01:40:31.515Z,99701.93
2022-09-12T01:40:41.485Z,99703.09
2022-09-12T01:40:51.474Z,99699.03
2022-09-12T01:41:01.478Z,99702.95
2022-09-12T01:41:11.504Z,99699.27
2022-09-12T01:41:21.491Z,99704.35
2022-09-12T01:41:31.518Z,99701.19
2022-09-12T01:41:41.477Z,99700.43
2022-09-12T01:41:51.494Z,99700.20
2022-09-12T01:42:01.425Z,99698.64
2022-09-12T01:42:11.521Z,99699.03
2022-09-12T01:42:21.413Z,99698.70
2022-09-12T01:42:31.531Z,99698.27
2022-09-12T01:42:41.524Z,99698.03
2022-09-12T01:42:51.418Z,99695.98
2022-09-12T01:43:01.462Z,99701.27
2022-09-12T01:43:11.439Z,99699.36
2022-09-12T01:43:21.439Z,99698.60
2022-09-12T01:43:31.411Z,99702.76
2022-09-12T01:43:41.532Z,99697.14
2022-09-12T01:43:51.535Z,99696.15
2022-09-12T01:44:01.437Z,99698.14
2022-09-12T01:44:11.443Z,99696.38
2022-09-12T01:44:21.505Z,99695.22
2022-09-12T01:44:31.456Z,99699.47
2022-09-12T01:44:41.498Z,99697.48
2022-09-12T01:44:51.489Z,99699.20
2022-09-12T01:45:01.533Z,99697.94
2022-09-12T01:45:11.511Z,99697.31
2022-09-12T01:45:21.426Z,99697.94
2022-09-12T01:45:31.586Z,99699.47
2022-09-12T01:45:41.480Z,99693.16
2022-09-12T01:45:51.549Z,99696.64
2022-09-12T01:46:01.503Z,99693.81
2022-09-12T01:46:11.460Z,99697.10
2022-09-12T01:46:21.544Z,99695.98
2022-09-12T01:46:31.463Z,99696.64
2022-09-12T01:46:41.503Z,99698.94
2022-09-12T01:46:51.473Z,99699.14
2022-09-12T01:47:01.539Z,99695.05
2022-09-12T01:47:11.538Z,99693.95
2022-09-12T01:47:21.459Z,99691.97
2022-09-12T01:47:31.489Z,99692.23
2022-09-12T01:47:41.504Z,99694.45
2022-09-12T01:47:51.515Z,99693.45
2022-09-12T01:48:01.452Z,99695.95
2022-09-12T01:48:11.444Z,99695.16
2022-09-12T01:48:21.534Z,99694.12
2022-09-12T01:48:31.426Z,99694.80
2022-09-12T01:48:41.538Z,99694.56
2022-09-12T01:48:51.490Z,99693.50
2022-09-12T01:49:01.532Z,99695.17
2022-09-12T01:49:11.450Z,99696.67
2022-09-12T01:49:21.425Z,99692.08
2022-09-12T01:49:31.489Z,99698.41
2022-09-12T01:49:41.425Z,99694.48
2022-09-12T01:49:51.489Z,99693.81
2022-09-12T01:50:01.447Z,99689.16
2022-09-12T01:50:11.542Z,99693.44
2022-09-12T01:50:21.522Z,99689.16
2022-09-12T01:50:31.485Z,99695.86
2022-09-12T01:50:41.431Z,99690.81
2022-09-12T01:50:51.421Z,99689.81
2022-09-12T01:51:01.533Z,99691.64
2022-09-12T01:51:11.511Z,99693.12
2022-09-12T01:51:21.477Z,99690.88
2022-09-12T01:51:31.483Z,99695.78
2022-09-12T01:51:41.497Z,99692.80
2022-09-12T01:51:51.498Z,99692.56
2022-09-12T01:52:01.509Z,99693.33
2022-09-12T01:52:11.462Z,99688.19
2022-09-12T01:52:21.492Z,99695.17
2022-09-12T01:52:31.538Z,99692.73
2022-09-12T01:52:41.425Z,99691.50
2022-09-12T01:52:51.539Z,99689.98
2022-09-12T01:53:01.435Z,99691.36
2022-09-12T01:53:11.544Z,99691.09
2022-09-12T01:53:21.495Z,99692.25
2022-09-12T01:53:31.524Z,99691.42
2022-09-12T01:53:41.541Z,99690.59
2022-09-12T01:53:51.418Z,99690.42
2022-09-12T01:54:01.513Z,99692.52
2022-09-12T01:54:11.417Z,99696.68
2022-09-12T01:54:21.431Z,99695.52
2022-09-12T01:54:31.517Z,99693.92
2022-09-12T01:54:41.532Z,99693.33
2022-09-12T01:54:51.514Z,99691.94
2022-09-12T01:55:01.541Z,99692.53
2022-09-12T01:55:11.534Z,99689.88
2022-09-12T01:55:21.411Z,99690.44
2022-09-12T01:55:31.501Z,99690.28
2022-09-12T01:55:41.514Z,99692.00
2022-09-12T01:55:51.533Z,99689.11
2022-09-12T01:56:01.527Z,99693.16
2022-09-12T01:56:11.505Z,99690.67
2022-09-12T01:56:21.523Z,99689.78
2022-09-12T01:56:31.541Z,99693.88
2022-09-12T01:56:41.512Z,99686.97
2022-09-12T01:56:51.450Z,99690.22
2022-09-12T01:57:01.445Z,99693.51
2022-09-12T01:57:11.521Z,99687.64
2022-09-12T01:57:21.467Z,99693.19